Webcam  Webcam


Thunder radar more information blitzortung!


Rain radar more information rain snow radar



Nearby METAR Reports

   
EHVK - Volkel Rnlafb, Netherlands
Distance from station: SW 18 km
Updated: 05-10-2022 16:55
Mostly Cloudy  
Mostly Cloudy  
   Wind: SW 9.8 m/s
Wind: SW 9.8 m/s
Temperature: 20°C
Dew Point: 12°C
Humidity: 60%
Barometer: 1013 hPa
Clouds: Mostly Cloudy
Visibility: More than 10 km
Cloud details: Partly Cloudy 3400 ft,
Mostly Cloudy 3800 ft
EHVK 051455Z AUTO 23019KT 190V260 9999 SCT034 BKN038 20/12 Q1013 BLU
EDLV - Niederrhein, Germany
Distance from station: SE 25 km
Updated: 05-10-2022 16:50
Mostly Cloudy  
Mostly Cloudy  
   Wind: SSW 5.7 m/s
Wind: SSW 5.7 m/s
Temperature: 21°C
Dew Point: 13°C
Humidity: 60%
Barometer: 1013 hPa
Clouds: Mostly Cloudy
Visibility: More than 10 km
Cloud details: Partly Cloudy 3700 ft,
Mostly Cloudy 4200 ft
EDLV 051450Z 21011KT 9999 SCT037 BKN042 21/13 Q1013
EHDL - Deelen Rnlafb, Netherlands
Distance from station: N 35 km
Updated: 05-10-2022 16:55
Mostly Cloudy  
Mostly Cloudy  
   Wind: SW 6.7 m/s
Wind: SW 6.7 m/s
Temperature: 19°C
Dew Point: 12°C
Humidity: 64%
Barometer: 1012 hPa
Clouds: Mostly Cloudy
Visibility: More than 10 km
Cloud details: Few Clouds 3200 ft,
Partly Cloudy 3800 ft,
Mostly Cloudy 4200 ft
EHDL 051455Z AUTO 22013KT 160V300 9999 FEW032 SCT038 BKN042 19/12 Q1012 BLU
EHEH - Eindhoven Rnlafb, Netherlands
Distance from station: SW 48 km
Updated: 05-10-2022 16:55
Overcast  
Overcast  
   Wind: SW 10.8 m/s<br />Gust to 10.8 m/s
Wind: SW 10.8 m/s
Gust to 10.8 m/s
Temperature: 19°C
Dew Point: 12°C
Humidity: 64%
Barometer: 1014 hPa
Clouds: Overcast
Visibility: More than 10 km
Cloud details: Mostly Cloudy 2900 ft,
Mostly Cloudy 3300 ft,
Overcast 3800 ft
EHEH 051455Z AUTO 23021G32KT 210V280 9999 BKN029 BKN033 OVC038 19/12 Q1014 BLU TEMPO 22016G32KT
EHGR - Gilze-Rijen Rnla, Netherlands
Distance from station: WSW 70 km
Updated: 05-10-2022 16:55
Overcast  
Overcast  
   Wind: SW 6.7 m/s<br />Gust to 6.7 m/s
Wind: SW 6.7 m/s
Gust to 6.7 m/s
Temperature: 18°C
Dew Point: 11°C
Humidity: 64%
Barometer: 1013 hPa
Clouds: Overcast
Visibility: More than 10 km
Cloud details: Partly Cloudy 3100 ft,
Overcast 3600 ft
EHGR 051455Z AUTO 22013G25KT 180V250 9999 SCT031 OVC036 18/11 Q1013 BLU
EBBL - Kleine-Brogel(Ba, Belgium
Distance from station: SSW 71 km
Updated: 05-10-2022 17:12
Mostly Cloudy  
Mostly Cloudy  
   Wind: WSW 9.8 m/s
Wind: WSW 9.8 m/s
Temperature: 18°C
Dew Point: 11°C
Humidity: 64%
Barometer: 1015 hPa
Clouds: Mostly Cloudy
Visibility: More than 10 km
Cloud details: Mostly Cloudy 3000 ft
EBBL 051512Z 25019KT 9999 BKN030 18/11 Q1015 BLU FCST CANCEL

Script developed by  Saratoga-weather.org Adapted for the template by  Weerstation Leuven

You find our weather info also at:

UK Metoffice

European Weather Network

WeatherCloud

Weather Underground

AWEKAS

Citizen Weather Observer Program (CWOP)

HAMweather, WeatherForYou, PWS Weather

Equipment we use:

Weather-station
Davis VP2

Weather-program
Meteobridge

Weather-server
Meteobridge Pro

Davis VP2

Meteobridge

Meteobridge Pro